world map with ANU marked

ANU - Airport

This information may not be accurate or current and is not valid for navigation or flight planning. No warranty of fitness for any purpose is made or implied.

flag of Antigua and Barbuda

Donate via PayPal

Additional information is available on the NEW Great Circle Mapper

Location
City:  Antigua, Antigua Island, Antigua and Barbuda
Near (Alt.):Saint John's
Name:V.C. Bird International (Coolidge International, Coolidge AFB)
ICAO / IATA:TAPA / ANU

Details
Type:Airport (Aerodrome, Airfield)
Use:Military
Latitude:17°08'12"N (17.136667)
Longitude:61°47'34"W (-61.792777)
Elevation:62 ft (19 m)
Runways:1
Longest:8980 × 148 ft (2737 × 45 m)

Time
Timezone:UTC+30:08 (DST+32:08)
Local Time:

Weather
METAR:TAPA  041400Z 10009KT 9999 SCT018 26/21 Q1016 NOSIG
TAF:TAPA  032300Z 0400/0424 10010KT 9999 SCT020= TAF TRPG 032300Z 0400/0424 10012KT 9999 SCT020

Related Locations
Nearby:
Farthest:PRD: 12208 mi / 19647 km
Pardoo, WA, AU

Find:

   beyond  
but within

Other Information
Maps:
Links:
Sources:

  

Airport Diagram

Airport diagram for ANU

Airport diagram PDF

 


Great Circle Mapper   Great Circle Mapper
Great Circle Mapper FAQ   Great Circle Mapper FAQ
  Karl's Home Page
KLSē   KLSē Home
   GC on Facebook
Airlines of the World   Airlines of the World
Donate via PayPal


Copyright © 2004-2019, Karl L. Swartz. All rights reserved.
All trademarks mentioned herein belong to their respective owners.

Please see credits for attribution and copyright information.

Karl Swartz <karl@kls2.com>
  Powered by FreeBSD
Valid HTML 4.01!
Labeled with ICRA
hCard Microformat
Geo Microformat